Tiempo atmosférico en la estación meteorológica de Puerto De San Isidro, León (1510 m.)



Fecha
DESCASC
Temp. máxima en grados centígrados (hora)
DESCASC
Temp. mínima en grados centígrados (hora)
DESCASC
Temp. media en grados centígrados
DESCASC
Racha de viento máxima en m/sg (hora)
DESCASC
Velocidad máxima media en intervalos de 10 minutos(hora)
DESCASC
Precipitaciones diarias en mm
DESCASC
Precipitaciones de 00:00 a 06:00 en mm
DESCASC
Precipitaciones de 06:00 a 12:00 en mm
DESCASC
Precipitaciones de 12:00 a 18:00 en mm
DESCASC
Precipitaciones de 18:00 a 24:00 en mm
DESCASC
22-11-2020 12.1 (14:40) 0 (00:30) 6.1 6.39 (13:30) 4.72 (16:00) 0 0 0 0 0
21-11-2020 15.2 (15:00) 0.5 (23:00) 7.8 6.11 (13:10) 4.72 (13:10) 0 0 0 0 0
20-11-2020 11.6 (15:10) -1.3 (04:20) 5.2 6.94 (16:40) 5.83 (16:40) 0 0 0 0 0
19-11-2020 11.4 (14:30) -0.5 (-00:0) 5.4 8.61 (15:00) 6.11 (15:00) 0.2 0 0.2 0 0
18-11-2020 16.1 (14:40) 3.7 (00:00) 9.9 12.5 (01:00) 8.61 (01:00) 0 0 0 0 0
17-11-2020 13.8 (14:20) 0.6 (00:00) 7.2 10.28 (22:50) 6.67 (22:50) 0 0 0 0 0
16-11-2020 10.2 (16:20) 1.1 (00:00) 5.6 8.33 (07:20) 6.39 (07:20) 0.2 0 0.2 0 0
15-11-2020 12 (15:00) 5.1 (23:40) 8.5 17.22 (08:30) 7.22 (11:00) 2 0.4 0.6 0.4 0.6
14-11-2020 10 (13:40) 3.9 (00:30) 7 16.11 (14:10) 8.61 (14:10) 0 0 0 0 0
13-11-2020 11.7 (15:00) 2.1 (06:30) 6.9 12.78 (21:40) 8.33 (21:50) 0 0 0 0 0

Gráficas

Temp. máximas Temp. mínimas Temp. medias Precipitaciones Rachas de viento máximas Velocidades máximas media en intervalos de 10 minutos

Datos horarios

Fecha y hora oficial Temperatura (ºC) Velocidad del viento (km/h) Dirección del viento Racha (km/h) Dirección de racha Precipitación (mm) Presión (hPa) Tendencia (hPa) Humedad (%)
2020-11-24 23:00:00 3.2 17 Este 35 Sur 0 847.5 -0.9 86
2020-11-24 22:00:00 3.7 18 Este 42 Sudeste 0 848 -0.9 78
2020-11-24 21:00:00 3 15 Este 42 Sudeste 0 848.4 -0.5 82
2020-11-24 20:00:00 3 21 Este 37 Este 0 848.4 -- 80
2020-11-24 19:00:00 3.6 14 Sudeste 31 Sudeste 0 848.9 -- 78
2020-11-24 18:00:00 4.9 16 Sudeste 25 Sudeste 0 848.9 -- 69
2020-11-24 17:00:00 6 16 Este 25 Este 0 849 -- 61
2020-11-24 16:00:00 8 8 Este 31 Este 0 849 -- 49
2020-11-24 15:00:00 7.9 13 Sudeste 28 Sur 0 849.8 -- 58
2020-11-24 14:00:00 7.1 24 Este 38 Este 0 850.4 -- 50
2020-11-24 13:00:00 7.1 28 Este 39 Este 0 851.2 -- 59
2020-11-24 12:00:00 6.8 24 Este 36 Este 0 852 -- 58
2020-11-24 11:00:00 6.2 10 Este 18 Nordeste 0 852.5 -- 57
2020-11-24 10:00:00 2.7 4 Sudeste 9 Este 0 852.9 -- 65
2020-11-24 09:00:00 -1.2 2 Sudoeste 6 Sudeste 0 852.8 -- 76
2020-11-24 08:00:00 -0.2 3 Sudeste 8 Sudeste 0 852.8 -- 71
2020-11-24 07:00:00 -0.9 2 Sur 10 Sur 0 852.8 -- 76
2020-11-24 06:00:00 0.4 3 Sur 8 Sudeste 0 853.1 -- 72
2020-11-24 05:00:00 1.6 2 Sur 13 Nordeste 0 853.4 -- 69
2020-11-24 04:00:00 2.5 2 Sur 18 Este 0 853.8 -- 67
2020-11-24 03:00:00 3.3 10 Este 17 Este 0 854.2 -- 66
2020-11-24 02:00:00 3.3 9 Este 15 Este 0 854.8 -- 68
2020-11-24 01:00:00 3.6 5 Este 10 Sur 0 855.5 -- 66
2020-11-24 00:00:00 2.4 6 Sudeste 11 Sudeste 0 856 -- 73
2020-11-23 23:00:00 1.9 2 Este 7 Este 0 856.5 -- 72
2020-11-23 22:00:00 3.4 4 Este 12 Sudeste 0 856.7 -- 68
2020-11-23 21:00:00 3.4 7 Este 10 Sudeste 0 857 -- 68
2020-11-23 20:00:00 2.3 0 Calma 7 Sudeste 0 857.1 -- 70
2020-11-23 19:00:00 3.2 0 Calma 7 Sur 0 857.2 -- 69
2020-11-23 18:00:00 5.5 0 Calma 11 Sudeste 0 857.2 -- 63
2020-11-23 17:00:00 9.5 4 Este 14 Este 0 857.1 -- 49
2020-11-23 16:00:00 11.3 11 Este 16 Este 0 857.1 -- 38
2020-11-23 15:00:00 12.6 13 Este 19 Este 0 857.4 -- 38
2020-11-23 14:00:00 13.6 15 Este 19 Este 0 857.8 -- 30
2020-11-23 13:00:00 13 13 Este 18 Este 0 858.6 -- 32
2020-11-23 12:00:00 11.9 12 Este 15 Este 0 859 -- 32
2020-11-23 11:00:00 10 4 Sudeste 8 Sur 0 859.1 -- 38
2020-11-23 10:00:00 5.4 2 Sur 9 Noroeste 0 859 -- 51
2020-11-23 09:00:00 1.9 6 Noroeste 13 Oeste 0 858.7 -- 56
2020-11-23 08:00:00 1.3 7 Oeste 11 Oeste 0 858.4 -- 61
2020-11-23 07:00:00 1.7 6 Oeste 11 Oeste 0 858.2 -- 62
2020-11-23 06:00:00 0.3 7 Oeste 10 Oeste 0 858.4 -- 66
2020-11-23 05:00:00 1.7 5 Oeste 12 Oeste 0 858.4 -- 58
2020-11-23 04:00:00 1.7 6 Oeste 12 Oeste 0 858.7 -- 64
2020-11-23 03:00:00 1.6 9 Noroeste 12 Oeste 0 858.9 -- 70
2020-11-23 02:00:00 1.9 7 Oeste 11 Noroeste 0 859 -- 73
2020-11-23 01:00:00 1.6 6 Oeste 10 Oeste 0 859.2 -- 76
2020-11-23 00:00:00 2.2 6 Oeste 12 Noroeste 0 859.3 -- 76
2020-11-22 23:00:00 3.3 6 Oeste 15 Oeste 0 859.4 -- 79
2020-11-22 22:00:00 2.7 7 Oeste 16 Oeste 0 859.3 -- 83
2020-11-22 21:00:00 3.8 9 Oeste 15 Oeste 0 859.2 -- 84
2020-11-22 20:00:00 2.8 7 Noroeste 14 Oeste 0 859 -- 84
2020-11-22 19:00:00 5.3 12 Oeste 17 Oeste 0 858.8 -- 79
2020-11-22 18:00:00 5.2 9 Oeste 18 Oeste 0 858.5 -- 76
2020-11-22 17:00:00 7 12 Oeste 23 Oeste 0 858.1 -- 63
2020-11-22 16:00:00 9.7 17 Oeste 23 Oeste 0 858 -- 53
2020-11-22 15:00:00 11.9 14 Oeste 22 Oeste 0 858.1 -- 43
2020-11-22 14:00:00 11.8 15 Oeste 23 Oeste 0 858.3 -- 42
2020-11-22 13:00:00 11.5 13 Oeste 19 Oeste 0 858.7 -- 43
2020-11-22 12:00:00 10.6 12 Oeste 17 Oeste 0 859.1 -- 48
2020-11-22 11:00:00 9 16 Oeste 23 Oeste 0 859.2 -- 54
2020-11-22 10:00:00 7.3 11 Oeste 15 Oeste 0 858.9 -- 61
2020-11-22 09:00:00 3.6 6 Oeste 17 Oeste 0 858.6 -- 71
2020-11-22 08:00:00 3.1 14 Oeste 18 Oeste 0 858.5 -- 69
2020-11-22 07:00:00 2.9 6 Oeste 15 Oeste 0 858.4 -- 68
2020-11-22 06:00:00 3 10 Oeste 15 Oeste 0 858.1 -- 63
2020-11-22 05:00:00 2.5 6 Oeste 10 Oeste 0 858 -- 55
2020-11-22 04:00:00 1.2 8 Oeste 10 Noroeste 0 857.9 -- 61
2020-11-22 03:00:00 1.9 7 Oeste 9 Noroeste 0 857.7 -- 57
2020-11-22 02:00:00 0.9 4 Noroeste 9 Oeste 0 857.8 -- 64
2020-11-22 01:00:00 0.7 2 Oeste 5 Oeste 0 858.2 -- 76
2020-11-22 00:00:00 0.7 2 Sudeste 7 Este 0 858.3 -- 77
2020-11-21 23:00:00 0.5 2 Sudoeste 7 Este 0 858.5 -- 78
2020-11-21 22:00:00 1.4 0 Calma 5 Sudeste 0 858.5 -- 72
2020-11-21 21:00:00 2.3 2 Oeste 7 Oeste 0 858.5 -- 68
2020-11-21 20:00:00 3.3 5 Oeste 8 Noroeste 0 858.2 -- 64
2020-11-21 19:00:00 5.1 3 Oeste 12 Sur 0 858.4 -- 59
2020-11-21 18:00:00 6 4 Oeste 10 Sur 0 858.1 -- 58
2020-11-21 17:00:00 9.7 2 Sudeste 10 Sudeste 0 858.1 -- 48
2020-11-21 16:00:00 13 8 Este 13 Este 0 858 -- 39
2020-11-21 15:00:00 15 10 Este 18 Sudeste 0 858.2 -- 37
2020-11-21 14:00:00 14.5 7 Sudeste 22 Este 0 858.6 -- 38
2020-11-21 13:00:00 14 13 Este 19 Este 0 859.1 -- 41
2020-11-21 12:00:00 12.9 13 Este 17 Este 0 859.6 -- 46
2020-11-21 11:00:00 10.7 6 Este 10 Este 0 859.8 -- 53
2020-11-21 10:00:00 6.8 5 Sudeste 9 Este 0 859.9 -- 65
2020-11-21 09:00:00 1.2 4 Sudeste 7 Sudeste 0 859.6 -- 82
2020-11-21 08:00:00 2.2 4 Oeste 9 Oeste 0 859.4 -- 79
2020-11-21 07:00:00 2.3 5 Oeste 10 Noroeste 0 859.3 -- 79
2020-11-21 06:00:00 3 7 Oeste 9 Oeste 0 859.2 -- 75
2020-11-21 05:00:00 2.9 3 Oeste 9 Sudeste 0 859.3 -- 77
2020-11-21 04:00:00 2.2 3 Oeste 8 Sur 0 859.7 -- 79
2020-11-21 03:00:00 2.8 2 Oeste 7 Noroeste 0 860 -- 74
2020-11-21 02:00:00 3.6 3 Noroeste 11 Noroeste 0 860.3 -- 69
2020-11-21 01:00:00 3.3 6 Noroeste 9 Oeste 0 860.7 -- 68
2020-11-21 00:00:00 4.1 3 Noroeste 12 Noroeste 0 861 -- 63
2020-11-20 23:00:00 4.2 9 Noroeste 13 Noroeste 0 861.1 -- 62
2020-11-20 22:00:00 3.7 7 Noroeste 12 Norte 0 861.4 -- 64
2020-11-20 21:00:00 2.9 7 Oeste 14 Oeste 0 861.7 -- 67
2020-11-20 20:00:00 4.5 10 Noroeste 13 Noroeste 0 862 -- 61
2020-11-20 19:00:00 2.9 3 Sudoeste 9 Noroeste 0 861.9 -- 67
2020-11-20 18:00:00 3.6 2 Oeste 18 Oeste 0 862 -- 59
2020-11-20 17:00:00 5.6 16 Oeste 25 Oeste 0 861.9 -- 51
2020-11-20 16:00:00 10.3 10 Nordeste 22 Nordeste 0 861.9 -- 31
2020-11-20 15:00:00 11.4 3 Oeste 18 Oeste 0 862.3 -- 29
2020-11-20 14:00:00 10.2 14 Oeste 22 Oeste 0 862.6 -- 19
2020-11-20 13:00:00 9.8 15 Oeste 21 Oeste 0 863.1 -- 19
2020-11-20 12:00:00 9.7 13 Oeste 18 Oeste 0 863.5 -- 17
2020-11-20 11:00:00 7.6 6 Oeste 12 Oeste 0 863.5 -- 24
2020-11-20 10:00:00 4.9 6 Oeste 12 Oeste 0 863.7 -- 31
2020-11-20 09:00:00 1.1 4 Oeste 11 Noroeste 0 863.3 -- 32
2020-11-20 08:00:00 -0.9 8 Noroeste 13 Noroeste 0 863.5 -- 44
2020-11-20 07:00:00 0.3 5 Noroeste 11 Noroeste 0 863.3 -- 43
2020-11-20 06:00:00 0.3 5 Oeste 11 Noroeste 0 863.4 -- 42
2020-11-20 05:00:00 -0.5 6 Noroeste 11 Noroeste 0 863.7 -- 58
2020-11-20 04:00:00 -0.9 7 Noroeste 13 Oeste 0 864 -- 65
2020-11-20 03:00:00 -0.6 8 Noroeste 12 Noroeste 0 863.9 -- 63
2020-11-20 02:00:00 -0.4 8 Oeste 18 Oeste 0 864.4 -- 94
2020-11-20 01:00:00 0.4 14 Oeste 19 Oeste 0 865.1 -- 91
2020-11-20 00:00:00 -0.4 10 Noroeste 14 Noroeste 0 865.4 -- 93
2020-11-19 23:00:00 1.3 8 Oeste 19 Noroeste 0 865.4 -- 95
2020-11-19 22:00:00 2.7 13 Noroeste 19 Noroeste 0 865.3 -- 94
2020-11-19 21:00:00 4 13 Oeste 28 Oeste 0 865.2 -- 94
2020-11-19 20:00:00 4.1 15 Oeste 24 Oeste 0 865.1 -- 94
2020-11-19 19:00:00 3.9 10 Oeste 14 Oeste 0 865.1 -- 94
2020-11-19 18:00:00 5.3 7 Noroeste 22 Oeste 0 865.4 -- 94
2020-11-19 17:00:00 6 15 Oeste 22 Oeste 0 865.3 -- 94
2020-11-19 16:00:00 6.7 14 Oeste 26 Oeste 0 865.1 -- 94
2020-11-19 15:00:00 8.9 22 Noroeste 31 Noroeste 0 865.1 -- 88
2020-11-19 14:00:00 10.9 17 Oeste 22 Noroeste 0 864.6 -- 74
2020-11-19 13:00:00 9.1 14 Oeste 24 Oeste 0 865.2 -- 93
2020-11-19 12:00:00 7.4 16 Oeste 24 Oeste 0 866 -- 94
2020-11-19 11:00:00 8.6 13 Oeste 17 Oeste 0 865.4 -- 94
2020-11-19 10:00:00 6.8 12 Oeste 21 Noroeste 0.2 864.9 -- 94
2020-11-19 09:00:00 6.6 17 Noroeste 26 Noroeste 0 865.1 -- 94
2020-11-19 08:00:00 6.9 13 Noroeste 25 Noroeste 0 864.5 -- 94
2020-11-19 07:00:00 7 9 Noroeste 15 Noroeste 0 863.8 -- 94
2020-11-19 06:00:00 6.7 10 Noroeste 17 Noroeste 0 863.4 -- 93
2020-11-19 05:00:00 6.6 10 Noroeste 14 Oeste 0 863.1 -- 93
2020-11-19 04:00:00 6.7 8 Noroeste 24 Oeste 0 863 -- 93
2020-11-19 03:00:00 6.5 13 Noroeste 22 Noroeste 0 862.6 -- 88
2020-11-19 02:00:00 5.8 6 Noroeste 15 Oeste 0 862.2 -- 89
2020-11-19 01:00:00 5.4 7 Oeste 12 Noroeste 0 862.2 -- 90
2020-11-19 00:00:00 4.8 7 Noroeste 12 Noroeste 0 862.4 -- 90
2020-11-18 23:00:00 5.8 8 Oeste 18 Oeste 0 862.3 -- 91
2020-11-18 22:00:00 3.7 6 Oeste 10 Noroeste 0 861.6 -- 88
2020-11-18 21:00:00 4.5 2 Sudeste 5 Sur 0 860.9 -- 88
2020-11-18 20:00:00 5.2 2 Sudeste 6 Sur 0 860.4 -- 85
2020-11-18 19:00:00 6.9 2 Sur 7 Noroeste 0 859.9 -- 77
2020-11-18 18:00:00 9.1 2 Este 9 Nordeste 0 859.2 -- 74
2020-11-18 17:00:00 11.4 5 Este 22 Este 0 858.9 -- 69
2020-11-18 16:00:00 15 7 Nordeste 24 Oeste 0 858.5 -- 53
2020-11-18 15:00:00 15.4 17 Oeste 30 Oeste 0 858.5 -- 38
2020-11-18 14:00:00 15.5 14 Sudoeste 42 Oeste 0 858.5 -- 38
2020-11-18 13:00:00 14.8 17 Oeste 34 Oeste 0 858.9 -- 38
2020-11-18 12:00:00 12.5 13 Este 19 Este 0 859.1 -- 66
2020-11-18 11:00:00 10.5 12 Este 19 Este 0 859.1 -- 74
2020-11-18 10:00:00 7.8 6 Sudeste 10 Este 0 858.8 -- 83
2020-11-18 09:00:00 4.7 4 Este 12 Este 0 858.1 -- 87
2020-11-18 08:00:00 5.4 5 Este 37 Sur 0 857.6 -- 85
2020-11-18 07:00:00 8.8 12 Sudoeste 34 Oeste 0 857 -- 68
2020-11-18 06:00:00 4.2 6 Este 12 Sudeste 0 857.1 -- 86
2020-11-18 05:00:00 5.6 5 Sudeste 21 Nordeste 0 857.1 -- 84
2020-11-18 04:00:00 5.5 7 Sudeste 16 Este 0 856.9 -- 83
2020-11-18 03:00:00 5.4 7 Sudeste 30 Sudeste 0 857.2 -- 79
2020-11-18 02:00:00 6.5 22 Sudeste 34 Este 0 857.2 -- 73
2020-11-18 01:00:00 6.8 31 Este 45 Este 0 857.2 -- 68
2020-11-18 00:00:00 6 17 Este 34 Este 0 857.4 -- 66
2020-11-17 23:00:00 5.7 20 Este 37 Este 0 857.5 -- 70
2020-11-17 22:00:00 5.5 3 Noroeste 21 Nordeste 0 857.7 -- 70
2020-11-17 21:00:00 5.4 5 Este 15 Nordeste 0 857.7 -- 70
2020-11-17 20:00:00 5.5 4 Noroeste 18 Nordeste 0 857.6 -- 74
2020-11-17 19:00:00 8 5 Nordeste 29 Este 0 857.2 -- 69
2020-11-17 18:00:00 8.6 22 Este 36 Este 0 857 -- 71
2020-11-17 17:00:00 10.3 20 Este 31 Este 0 857.2 -- 66
2020-11-17 16:00:00 12.6 21 Este 32 Este 0 857.1 -- 61
2020-11-17 15:00:00 13.6 22 Este 30 Este 0 857.3 -- 53
2020-11-17 14:00:00 13.6 16 Este 28 Este 0 857.5 -- 49
2020-11-17 13:00:00 13.3 21 Este 26 Este 0 858 -- 48
2020-11-17 12:00:00 12.4 14 Este 19 Este 0 858.5 -- 52
2020-11-17 11:00:00 10.7 4 Este 10 Sudeste 0 858.6 -- 62
2020-11-17 10:00:00 7.4 3 Sudeste 6 Sudeste 0 858.6 -- 69
2020-11-17 09:00:00 2 3 Sudeste 8 Este 0 858.3 -- 84
2020-11-17 08:00:00 1.2 2 Sudoeste 7 Sudeste 0 857.9 -- 80
2020-11-17 07:00:00 1.9 3 Sudeste 9 Sudeste 0 857.7 -- 84
2020-11-17 06:00:00 3.9 5 Sudeste 12 Este 0 857.7 -- 80
2020-11-17 05:00:00 3 5 Este 9 Sudeste 0 857.8 -- 83
2020-11-17 04:00:00 1.5 0 Calma 6 Sudeste 0 857.9 -- 90
2020-11-17 03:00:00 3.1 5 Este 9 Este 0 858 -- 84
2020-11-17 02:00:00 1.5 4 Nordeste 10 Sudeste 0 858.2 -- 90
2020-11-17 01:00:00 1.4 0 Calma 5 Sudeste 0 858.4 -- 87
2020-11-17 00:00:00 1.3 3 Sur 6 Sudeste 0 858.4 -- 88
2020-11-16 23:00:00 1.3 2 Oeste 4 Sur 0 858.4 -- 87
2020-11-16 22:00:00 2.1 4 Oeste 5 Noroeste 0 858.1 -- 87
2020-11-16 21:00:00 2.7 0 Calma 5 Sudeste 0 857.8 -- 83
2020-11-16 20:00:00 3.9 3 Sudeste 8 Este 0 857.6 -- 78
2020-11-16 19:00:00 5.3 4 Nordeste 12 Oeste 0 857.3 -- 67
2020-11-16 18:00:00 6.4 0 Calma 6 Oeste 0 857 -- 66
2020-11-16 17:00:00 8.1 2 Sudeste 10 Este 0 856.8 -- 71
2020-11-16 16:00:00 9.9 8 Este 17 Este 0 856.6 -- 71
2020-11-16 15:00:00 9.6 12 Este 20 Este 0 856.6 -- 67
2020-11-16 14:00:00 9.8 14 Este 21 Este 0 856.4 -- 64
2020-11-16 13:00:00 9.3 15 Este 21 Este 0 856.6 -- 66
2020-11-16 12:00:00 9.5 10 Oeste 22 Oeste 0 856.5 -- 14
2020-11-16 11:00:00 7.3 13 Oeste 21 Oeste 0 856.1 -- 32
2020-11-16 10:00:00 3.1 6 Oeste 13 Oeste 0 856 -- 93
2020-11-16 09:00:00 1.2 2 Norte 14 Sur 0.2 855.3 -- 95
2020-11-16 08:00:00 2.4 7 Oeste 30 Oeste 0 854.9 -- 94
2020-11-16 07:00:00 2.3 19 Noroeste 25 Noroeste 0 854.6 -- 94
2020-11-16 06:00:00 2.6 0 Calma 17 Oeste 0 854.1 -- 94
2020-11-16 05:00:00 3.5 6 Noroeste 26 Oeste 0 854 -- 94
2020-11-16 04:00:00 4.3 15 Oeste 22 Oeste 0 854.3 -- 94
2020-11-16 03:00:00 4.6 5 Noroeste 13 Noroeste 0 853.8 0.6 94
2020-11-16 02:00:00 4.5 10 Noroeste 13 Noroeste 0 853.5 -- 94